createdAt,value
2019-04-27T00:02:30.829Z,2.30
2019-04-27T00:05:17.005Z,2.20
2019-04-27T00:07:51.495Z,2.27
2019-04-27T00:10:25.330Z,2.15
2019-04-27T00:12:53.033Z,2.12
2019-04-27T00:15:39.876Z,2.20
2019-04-27T00:18:26.036Z,2.10
2019-04-27T00:20:56.119Z,2.33
2019-04-27T00:23:26.223Z,2.40
2019-04-27T00:25:54.755Z,1.87
2019-04-27T00:28:23.272Z,1.98
2019-04-27T00:30:53.125Z,1.98
2019-04-27T00:33:23.441Z,1.80
2019-04-27T00:35:59.857Z,1.60
2019-04-27T00:38:29.974Z,1.50
2019-04-27T00:41:06.046Z,1.77
2019-04-27T00:43:34.541Z,1.60
2019-04-27T00:46:04.079Z,2.00
2019-04-27T00:48:33.330Z,1.80
2019-04-27T00:51:04.118Z,1.65
2019-04-27T00:53:33.503Z,2.00
2019-04-27T00:56:06.562Z,2.10
2019-04-27T00:58:45.562Z,1.72
2019-04-27T01:01:18.474Z,1.80
2019-04-27T01:04:06.668Z,1.75
2019-04-27T01:06:35.151Z,1.90
2019-04-27T01:09:06.148Z,1.62
2019-04-27T01:11:34.583Z,1.60
2019-04-27T01:14:03.900Z,1.60
2019-04-27T01:16:32.586Z,1.42
2019-04-27T01:19:01.032Z,1.70
2019-04-27T01:21:29.619Z,1.62
2019-04-27T01:23:58.891Z,1.65
2019-04-27T01:26:29.165Z,1.62
2019-04-27T01:28:59.275Z,1.70
2019-04-27T01:31:29.367Z,1.55
2019-04-27T01:33:59.029Z,1.70
2019-04-27T01:36:29.083Z,1.92
2019-04-27T01:38:59.411Z,1.45
2019-04-27T01:41:29.166Z,1.67
2019-04-27T01:43:59.103Z,1.67
2019-04-27T01:46:29.444Z,2.00
2019-04-27T01:48:59.074Z,1.87
2019-04-27T01:51:29.469Z,1.72
2019-04-27T01:53:59.375Z,1.72
2019-04-27T01:56:29.408Z,1.50
2019-04-27T01:58:59.507Z,1.87
2019-04-27T02:01:45.112Z,1.80
2019-04-27T02:04:24.188Z,1.77
2019-04-27T02:06:54.284Z,1.47
2019-04-27T02:09:23.493Z,2.17
2019-04-27T02:11:52.008Z,1.85
2019-04-27T02:14:20.629Z,1.85
2019-04-27T02:16:49.335Z,1.70
2019-04-27T02:19:19.413Z,1.90
2019-04-27T02:21:49.404Z,2.25
2019-04-27T02:24:18.735Z,2.00
2019-04-27T02:26:47.200Z,2.05
2019-04-27T02:29:26.082Z,2.15
2019-04-27T02:31:56.242Z,1.92
2019-04-27T02:34:32.418Z,2.33
2019-04-27T02:37:02.581Z,2.30
2019-04-27T02:39:31.181Z,2.17
2019-04-27T02:42:00.249Z,1.90
2019-04-27T02:44:30.700Z,2.10
2019-04-27T02:47:00.399Z,2.02
2019-04-27T02:49:30.419Z,2.10
2019-04-27T02:52:00.949Z,1.85
2019-04-27T02:54:29.978Z,1.87
2019-04-27T02:56:59.332Z,2.00
2019-04-27T02:59:30.280Z,2.12
2019-04-27T03:02:05.810Z,2.37
2019-04-27T03:04:34.325Z,1.92
2019-04-27T03:07:02.845Z,2.22
2019-04-27T03:09:31.296Z,1.92
2019-04-27T03:12:01.585Z,1.40
2019-04-27T03:14:40.103Z,1.90
2019-04-27T03:17:15.237Z,1.98
2019-04-27T03:19:52.508Z,1.60
2019-04-27T03:22:22.815Z,1.92
2019-04-27T03:25:14.895Z,1.70
2019-04-27T03:27:43.084Z,1.95
2019-04-27T03:30:14.830Z,1.67
2019-04-27T03:32:43.825Z,1.87
2019-04-27T03:35:13.667Z,1.80
2019-04-27T03:37:42.455Z,1.92
2019-04-27T03:40:11.043Z,1.85
2019-04-27T03:42:41.212Z,2.27
2019-04-27T03:45:10.736Z,1.98
2019-04-27T03:47:40.752Z,2.10
2019-04-27T03:50:12.248Z,2.37
2019-04-27T03:52:42.341Z,2.85
2019-04-27T03:55:15.509Z,2.42
2019-04-27T03:57:49.837Z,2.65
2019-04-27T04:00:26.201Z,2.75
2019-04-27T04:02:54.667Z,2.92
2019-04-27T04:05:23.181Z,3.05
2019-04-27T04:07:51.694Z,3.22
2019-04-27T04:10:20.215Z,2.67
2019-04-27T04:13:01.373Z,2.80
2019-04-27T04:15:52.150Z,2.55
2019-04-27T04:18:21.097Z,2.52
2019-04-27T04:20:50.588Z,2.62
2019-04-27T04:23:20.365Z,2.37
2019-04-27T04:25:49.844Z,2.40
2019-04-27T04:28:20.003Z,2.70
2019-04-27T04:30:50.174Z,2.40
2019-04-27T04:33:20.605Z,2.92
2019-04-27T04:35:49.862Z,2.70
2019-04-27T04:38:20.641Z,2.47
2019-04-27T04:40:59.510Z,2.83
2019-04-27T04:43:29.680Z,2.72
2019-04-27T04:46:09.819Z,2.55
2019-04-27T04:48:35.964Z,2.50
2019-04-27T04:51:04.455Z,2.30
2019-04-27T04:53:32.959Z,2.10
2019-04-27T04:56:01.400Z,2.40
2019-04-27T04:58:29.877Z,2.27
2019-04-27T05:00:59.679Z,2.17
2019-04-27T05:03:28.706Z,2.25
2019-04-27T05:05:58.777Z,2.27
2019-04-27T05:08:29.133Z,2.20
2019-04-27T05:10:59.501Z,2.17
2019-04-27T05:13:29.185Z,2.10
2019-04-27T05:15:58.919Z,2.50
2019-04-27T05:18:29.139Z,2.35
2019-04-27T05:20:59.328Z,2.22
2019-04-27T05:23:28.739Z,2.30
2019-04-27T05:25:59.186Z,2.00
2019-04-27T05:28:27.531Z,2.58
2019-04-27T05:30:56.004Z,2.40
2019-04-27T05:33:24.439Z,2.20
2019-04-27T05:36:12.228Z,2.40
2019-04-27T05:38:45.899Z,2.25
2019-04-27T05:41:10.827Z,2.58
2019-04-27T05:43:59.342Z,2.05
2019-04-27T05:46:47.348Z,2.25
2019-04-27T05:49:18.844Z,2.47
2019-04-27T05:51:48.501Z,3.02
2019-04-27T05:54:19.218Z,3.05
2019-04-27T05:56:49.246Z,2.72
2019-04-27T05:59:19.802Z,2.45
2019-04-27T06:01:49.211Z,2.50
2019-04-27T06:04:19.272Z,2.52
2019-04-27T06:06:49.663Z,2.65
2019-04-27T06:09:19.405Z,2.67
2019-04-27T06:11:50.280Z,3.00
2019-04-27T06:14:19.319Z,3.05
2019-04-27T06:16:50.970Z,2.92
2019-04-27T06:19:19.374Z,3.08
2019-04-27T06:21:49.848Z,3.22
2019-04-27T06:24:18.682Z,3.08
2019-04-27T06:26:47.365Z,3.22
2019-04-27T06:29:15.875Z,3.40
2019-04-27T06:31:44.344Z,3.60
2019-04-27T06:34:12.848Z,3.50
2019-04-27T06:36:41.304Z,3.52
2019-04-27T06:39:10.028Z,3.30
2019-04-27T06:41:39.973Z,3.02
2019-04-27T06:44:11.014Z,3.30
2019-04-27T06:46:40.358Z,3.12
2019-04-27T06:49:10.919Z,3.12
2019-04-27T06:51:40.064Z,3.20
2019-04-27T06:54:09.311Z,3.60
2019-04-27T06:56:38.911Z,3.00
2019-04-27T06:59:08.790Z,3.47
2019-04-27T07:01:39.010Z,2.95
2019-04-27T07:04:08.812Z,2.58
2019-04-27T07:06:52.233Z,2.80
2019-04-27T07:09:09.631Z,2.60
2019-04-27T07:11:39.460Z,2.30
2019-04-27T07:14:11.243Z,2.37
2019-04-27T07:16:39.170Z,3.00
2019-04-27T07:19:09.480Z,2.33
2019-04-27T07:21:39.742Z,2.22
2019-04-27T07:24:09.019Z,2.20
2019-04-27T07:26:39.142Z,2.47
2019-04-27T07:29:09.575Z,2.20
2019-04-27T07:31:40.013Z,2.47
2019-04-27T07:34:09.324Z,2.40
2019-04-27T07:36:39.347Z,2.30
2019-04-27T07:39:11.221Z,2.12
2019-04-27T07:41:38.953Z,2.02
2019-04-27T07:44:15.195Z,2.17
2019-04-27T07:46:43.648Z,1.85
2019-04-27T07:49:12.111Z,2.20
2019-04-27T07:51:40.633Z,2.50
2019-04-27T07:54:09.087Z,2.33
2019-04-27T07:56:38.987Z,2.55
2019-04-27T07:59:09.063Z,2.37
2019-04-27T08:01:39.270Z,2.40
2019-04-27T08:04:09.089Z,2.37
2019-04-27T08:06:38.776Z,2.40
2019-04-27T08:09:09.228Z,2.10
2019-04-27T08:11:39.137Z,2.72
2019-04-27T08:14:08.755Z,2.00
2019-04-27T08:16:38.756Z,2.20
2019-04-27T08:19:09.727Z,2.15
2019-04-27T08:21:44.440Z,2.45
2019-04-27T08:24:09.302Z,2.42
2019-04-27T08:26:39.782Z,2.30
2019-04-27T08:29:12.447Z,2.85
2019-04-27T08:31:42.591Z,2.22
2019-04-27T08:34:12.689Z,1.98
2019-04-27T08:36:41.167Z,2.00
2019-04-27T08:39:09.737Z,1.82
2019-04-27T08:41:39.482Z,2.02
2019-04-27T08:44:09.699Z,1.60
2019-04-27T08:46:38.605Z,1.40
2019-04-27T08:49:08.415Z,1.60
2019-04-27T08:51:37.374Z,1.50
2019-04-27T08:54:05.825Z,1.40
2019-04-27T08:56:34.283Z,1.45
2019-04-27T08:59:02.721Z,1.32
2019-04-27T09:01:31.179Z,1.35
2019-04-27T09:03:59.705Z,1.37
2019-04-27T09:06:29.190Z,1.30
2019-04-27T09:09:16.304Z,1.30
2019-04-27T09:12:01.636Z,1.40
2019-04-27T09:14:40.879Z,1.07
2019-04-27T09:17:13.949Z,1.22
2019-04-27T09:19:46.985Z,1.30
2019-04-27T09:22:16.559Z,1.37
2019-04-27T09:24:45.466Z,1.35
2019-04-27T09:27:13.918Z,1.30
2019-04-27T09:29:42.377Z,1.20
2019-04-27T09:32:10.834Z,1.20
2019-04-27T09:34:39.288Z,1.27
2019-04-27T09:37:07.821Z,1.50
2019-04-27T09:39:36.276Z,1.10
2019-04-27T09:42:06.565Z,1.07
2019-04-27T09:44:36.914Z,0.95
2019-04-27T09:47:06.140Z,0.93
2019-04-27T09:49:36.837Z,0.93
2019-04-27T09:52:06.317Z,0.80
2019-04-27T09:54:36.501Z,0.90
2019-04-27T09:57:06.999Z,0.93
2019-04-27T09:59:39.758Z,0.95
2019-04-27T10:02:08.775Z,0.90
2019-04-27T10:04:37.364Z,1.50
2019-04-27T10:07:06.266Z,1.22
2019-04-27T10:09:36.674Z,1.42
2019-04-27T10:12:07.418Z,1.47
2019-04-27T10:14:39.295Z,1.60
2019-04-27T10:17:07.792Z,1.87
2019-04-27T10:19:36.644Z,1.50
2019-04-27T10:22:05.797Z,1.40
2019-04-27T10:24:35.801Z,1.65
2019-04-27T10:27:07.612Z,1.47
2019-04-27T10:29:35.680Z,1.35
2019-04-27T10:32:04.233Z,1.25
2019-04-27T10:34:32.732Z,1.50
2019-04-27T10:37:01.244Z,1.00
2019-04-27T10:39:29.710Z,1.30
2019-04-27T10:41:58.232Z,0.80
2019-04-27T10:44:26.752Z,0.80
2019-04-27T10:46:55.224Z,0.70
2019-04-27T10:49:23.756Z,0.65
2019-04-27T10:51:52.205Z,0.80
2019-04-27T10:54:20.664Z,0.75
2019-04-27T10:56:49.138Z,0.80
2019-04-27T10:59:17.674Z,0.90
2019-04-27T11:01:48.866Z,0.70
2019-04-27T11:04:33.973Z,0.60
2019-04-27T11:07:10.003Z,0.70
2019-04-27T11:09:38.478Z,0.60
2019-04-27T11:12:07.085Z,0.80
2019-04-27T11:14:35.599Z,0.70
2019-04-27T11:17:06.546Z,0.70
2019-04-27T11:19:35.781Z,0.70
2019-04-27T11:24:36.970Z,0.40
2019-04-27T11:27:05.926Z,0.62
2019-04-27T11:29:36.000Z,0.40
2019-04-27T11:32:05.751Z,0.50
2019-04-27T11:34:41.604Z,0.50
2019-04-27T11:37:10.052Z,0.70
2019-04-27T11:39:38.535Z,0.60
2019-04-27T11:42:07.079Z,0.57
2019-04-27T11:44:35.964Z,0.55
2019-04-27T11:47:06.025Z,0.60
2019-04-27T11:49:40.542Z,0.60
2019-04-27T11:52:08.994Z,0.80
2019-04-27T11:54:37.513Z,0.80
2019-04-27T11:57:05.960Z,0.80
2019-04-27T11:59:34.412Z,0.80
2019-04-27T12:02:02.865Z,0.53
2019-04-27T12:04:31.308Z,0.70
2019-04-27T12:06:59.768Z,0.45
2019-04-27T12:09:28.204Z,0.62
2019-04-27T12:12:06.745Z,0.68
2019-04-27T12:14:26.908Z,0.60
2019-04-27T12:16:56.188Z,0.78
2019-04-27T12:19:26.673Z,0.70
2019-04-27T12:21:56.507Z,0.70
2019-04-27T12:24:26.748Z,0.80
2019-04-27T12:27:00.005Z,0.95
2019-04-27T12:29:47.320Z,1.05
2019-04-27T12:32:16.517Z,1.00
2019-04-27T12:34:46.508Z,0.90
2019-04-27T12:37:15.748Z,1.45
2019-04-27T12:39:44.390Z,1.10
2019-04-27T12:42:12.848Z,1.27
2019-04-27T12:44:42.462Z,1.30
2019-04-27T12:47:11.232Z,1.35
2019-04-27T12:49:39.748Z,1.15
2019-04-27T12:52:08.197Z,1.40
2019-04-27T12:54:38.296Z,1.47
2019-04-27T12:57:26.235Z,1.10
2019-04-27T12:59:56.744Z,0.90
2019-04-27T13:02:30.954Z,0.93
2019-04-27T13:04:59.415Z,0.90
2019-04-27T13:07:27.860Z,1.00
2019-04-27T13:09:56.506Z,0.82
2019-04-27T13:12:27.265Z,0.90
2019-04-27T13:14:56.018Z,0.60
2019-04-27T13:17:26.413Z,0.65
2019-04-27T13:19:56.068Z,0.70
2019-04-27T13:22:24.764Z,0.65
2019-04-27T13:24:53.216Z,0.50
2019-04-27T13:27:21.656Z,0.47
2019-04-27T13:29:50.112Z,0.50
2019-04-27T13:32:18.569Z,0.42
2019-04-27T13:34:47.033Z,0.50
2019-04-27T13:37:32.287Z,0.40
2019-04-27T13:40:07.073Z,0.40
2019-04-27T13:42:32.723Z,0.40
2019-04-27T13:45:02.830Z,0.35
2019-04-27T13:47:39.033Z,0.60
2019-04-27T13:50:09.785Z,0.40
2019-04-27T13:52:38.230Z,0.30
2019-04-27T13:55:07.330Z,0.40
2019-04-27T13:57:43.912Z,0.25
2019-04-27T14:00:07.764Z,0.30
2019-04-27T14:02:36.247Z,0.20
2019-04-27T14:05:06.337Z,0.23
2019-04-27T14:07:34.795Z,0.30
2019-04-27T14:10:04.783Z,0.30
2019-04-27T14:12:33.321Z,0.20
2019-04-27T14:15:01.764Z,0.20
2019-04-27T14:17:30.255Z,0.42
2019-04-27T14:19:59.511Z,0.33
2019-04-27T14:22:29.146Z,0.37
2019-04-27T14:24:58.495Z,0.82
2019-04-27T14:27:28.680Z,0.42
2019-04-27T14:29:59.351Z,0.50
2019-04-27T14:32:28.709Z,0.23
2019-04-27T14:34:59.068Z,0.55
2019-04-27T14:37:28.634Z,0.53
2019-04-27T14:42:27.154Z,0.60
2019-04-27T14:44:55.624Z,1.42
2019-04-27T14:47:31.421Z,0.95
2019-04-27T14:49:59.899Z,0.40
2019-04-27T14:52:28.368Z,0.60
2019-04-27T14:54:58.303Z,0.60
2019-04-27T14:57:26.843Z,0.40
2019-04-27T14:59:55.313Z,0.50
2019-04-27T15:02:23.849Z,0.50
2019-04-27T15:04:52.291Z,0.50
2019-04-27T15:07:20.819Z,0.40
2019-04-27T15:09:49.542Z,0.40
2019-04-27T15:12:23.540Z,0.40
2019-04-27T15:14:49.649Z,0.40
2019-04-27T15:17:23.354Z,0.45
2019-04-27T15:19:52.718Z,0.50
2019-04-27T15:22:23.055Z,0.60
2019-04-27T15:25:07.686Z,0.60
2019-04-27T15:27:23.709Z,0.80
2019-04-27T15:29:55.847Z,0.60
2019-04-27T15:32:33.561Z,0.57
2019-04-27T15:35:05.338Z,0.50
2019-04-27T15:37:39.262Z,0.50
2019-04-27T15:40:25.230Z,0.50
2019-04-27T15:42:55.434Z,0.42
2019-04-27T15:45:24.437Z,0.50
2019-04-27T15:47:54.775Z,0.40
2019-04-27T15:50:27.735Z,0.40
2019-04-27T15:52:53.733Z,0.60
2019-04-27T15:55:32.085Z,0.50
2019-04-27T15:57:52.447Z,0.37
2019-04-27T16:00:22.651Z,0.40
2019-04-27T16:02:52.662Z,0.60
2019-04-27T16:05:39.746Z,0.60
2019-04-27T16:08:15.714Z,0.50
2019-04-27T16:11:03.916Z,0.30
2019-04-27T16:13:33.208Z,0.40
2019-04-27T16:16:02.612Z,0.30
2019-04-27T16:18:32.669Z,0.40
2019-04-27T16:21:02.903Z,0.40
2019-04-27T16:23:33.695Z,0.60
2019-04-27T16:26:05.147Z,0.45
2019-04-27T16:28:31.951Z,0.50
2019-04-27T16:31:00.414Z,0.50
2019-04-27T16:33:29.443Z,0.57
2019-04-27T16:36:06.448Z,0.57
2019-04-27T16:38:34.553Z,0.55
2019-04-27T16:41:03.446Z,0.55
2019-04-27T16:43:32.936Z,0.50
2019-04-27T16:46:04.446Z,0.45
2019-04-27T16:48:34.583Z,0.80
2019-04-27T16:51:01.909Z,0.60
2019-04-27T16:53:39.435Z,0.50
2019-04-27T16:56:13.097Z,0.53
2019-04-27T16:58:39.522Z,1.00
2019-04-27T17:01:11.653Z,0.50
2019-04-27T17:03:41.483Z,0.57
2019-04-27T17:06:10.145Z,0.70
2019-04-27T17:08:39.437Z,0.80
2019-04-27T17:11:12.978Z,0.88
2019-04-27T17:13:44.148Z,0.85
2019-04-27T17:16:31.211Z,0.80
2019-04-27T17:19:15.355Z,0.93
2019-04-27T17:21:48.375Z,0.82
2019-04-27T17:24:18.351Z,0.90
2019-04-27T17:26:47.846Z,0.82
2019-04-27T17:29:20.415Z,0.98
2019-04-27T17:31:50.546Z,1.55
2019-04-27T17:34:25.303Z,0.98
2019-04-27T17:36:54.611Z,0.70
2019-04-27T17:39:23.490Z,0.85
2019-04-27T17:41:52.747Z,0.57
2019-04-27T17:44:23.103Z,0.62
2019-04-27T17:46:51.329Z,0.72
2019-04-27T17:49:19.833Z,0.80
2019-04-27T17:51:48.487Z,0.70
2019-04-27T17:54:18.204Z,0.90
2019-04-27T17:56:50.984Z,0.78
2019-04-27T17:59:20.687Z,0.60
2019-04-27T18:01:49.455Z,0.70
2019-04-27T18:04:18.573Z,0.60
2019-04-27T18:06:48.345Z,0.60
2019-04-27T18:09:18.787Z,0.70
2019-04-27T18:11:50.037Z,0.90
2019-04-27T18:14:19.222Z,0.85
2019-04-27T18:16:48.389Z,0.80
2019-04-27T18:19:18.663Z,0.70
2019-04-27T18:21:56.739Z,0.90
2019-04-27T18:24:29.024Z,0.95
2019-04-27T18:27:18.386Z,0.70
2019-04-27T18:29:48.592Z,0.70
2019-04-27T18:32:17.233Z,0.90
2019-04-27T18:34:49.328Z,0.90
2019-04-27T18:37:20.884Z,0.90
2019-04-27T18:39:50.960Z,0.82
2019-04-27T18:42:18.026Z,0.70
2019-04-27T18:44:46.399Z,0.75
2019-04-27T18:47:14.852Z,0.90
2019-04-27T18:50:07.843Z,1.30
2019-04-27T18:52:48.232Z,1.20
2019-04-27T18:55:20.568Z,0.90
2019-04-27T18:57:50.928Z,1.17
2019-04-27T19:00:19.616Z,1.02
2019-04-27T19:02:50.331Z,0.93
2019-04-27T19:05:18.880Z,1.57
2019-04-27T19:07:48.433Z,1.10
2019-04-27T19:10:19.044Z,1.10
2019-04-27T19:12:48.396Z,1.20
2019-04-27T19:15:18.331Z,1.50
2019-04-27T19:20:21.699Z,1.50
2019-04-27T19:22:50.170Z,1.20
2019-04-27T19:25:20.321Z,1.50
2019-04-27T19:28:05.446Z,1.50
2019-04-27T19:30:47.365Z,1.60
2019-04-27T19:33:15.827Z,2.00
2019-04-27T19:35:44.310Z,1.55
2019-04-27T19:38:12.815Z,1.47
2019-04-27T19:40:41.257Z,1.52
2019-04-27T19:43:10.288Z,1.40
2019-04-27T19:45:39.049Z,1.30
2019-04-27T19:48:10.337Z,2.17
2019-04-27T19:50:39.241Z,1.20
2019-04-27T19:53:09.652Z,1.50
2019-04-27T19:55:38.742Z,1.60
2019-04-27T19:58:08.484Z,1.75
2019-04-27T20:00:44.549Z,1.20
2019-04-27T20:03:14.639Z,1.20
2019-04-27T20:05:43.110Z,6.55
2019-04-27T20:08:13.192Z,1.35
2019-04-27T20:10:43.250Z,1.30
2019-04-27T20:13:11.982Z,1.20
2019-04-27T20:15:40.640Z,1.17
2019-04-27T20:18:10.859Z,1.22
2019-04-27T20:20:39.597Z,2.10
2019-04-27T20:23:08.062Z,1.30
2019-04-27T20:25:36.501Z,1.30
2019-04-27T20:28:04.959Z,1.32
2019-04-27T20:30:33.399Z,1.37
2019-04-27T20:33:07.770Z,1.45
2019-04-27T20:35:36.209Z,1.42
2019-04-27T20:38:04.656Z,1.10
2019-04-27T20:40:33.144Z,1.42
2019-04-27T20:43:01.692Z,1.50
2019-04-27T20:45:30.871Z,1.47
2019-04-27T20:48:01.097Z,1.67
2019-04-27T20:50:30.879Z,1.62
2019-04-27T20:53:01.741Z,1.27
2019-04-27T20:55:32.195Z,2.02
2019-04-27T20:58:02.613Z,1.40
2019-04-27T21:00:32.022Z,1.50
2019-04-27T21:03:11.954Z,1.80
2019-04-27T21:05:58.244Z,1.60
2019-04-27T21:08:31.167Z,1.60
2019-04-27T21:11:01.556Z,1.60
2019-04-27T21:13:29.516Z,1.67
2019-04-27T21:15:57.972Z,1.50
2019-04-27T21:18:26.445Z,1.50
2019-04-27T21:20:56.951Z,1.70
2019-04-27T21:23:25.490Z,1.67
2019-04-27T21:25:54.004Z,1.62
2019-04-27T21:28:22.442Z,1.40
2019-04-27T21:30:50.899Z,1.45
2019-04-27T21:33:19.372Z,1.40
2019-04-27T21:35:50.995Z,1.40
2019-04-27T22:08:54.737Z,1.50
2019-04-27T22:11:23.288Z,1.70
2019-04-27T22:13:51.729Z,1.80
2019-04-27T22:16:21.363Z,1.95
2019-04-27T22:18:51.930Z,1.80
2019-04-27T22:21:21.630Z,1.60
2019-04-27T22:23:57.685Z,1.70
2019-04-27T22:26:26.164Z,2.15
2019-04-27T22:28:54.705Z,1.80
2019-04-27T22:31:23.229Z,1.80
2019-04-27T22:33:54.398Z,1.70
2019-04-27T22:36:21.951Z,2.10
2019-04-27T22:38:51.597Z,1.60
2019-04-27T22:41:22.165Z,1.60
2019-04-27T22:44:04.152Z,1.70
2019-04-27T22:46:34.255Z,1.60
2019-04-27T22:49:02.717Z,2.00
2019-04-27T22:51:31.163Z,1.70
2019-04-27T22:54:01.296Z,1.77
2019-04-27T22:56:31.645Z,1.50
2019-04-27T22:59:21.458Z,1.70
2019-04-27T23:02:11.256Z,1.50
2019-04-27T23:04:41.420Z,1.60
2019-04-27T23:07:11.061Z,1.55
2019-04-27T23:09:40.770Z,1.50
2019-04-27T23:12:11.989Z,1.50
2019-04-27T23:14:41.465Z,1.40
2019-04-27T23:17:11.194Z,1.12
2019-04-27T23:19:40.877Z,1.27
2019-04-27T23:22:11.068Z,1.30
2019-04-27T23:27:16.576Z,1.55
2019-04-27T23:29:45.124Z,1.50
2019-04-27T23:32:15.236Z,1.10
2019-04-27T23:34:43.702Z,1.37
2019-04-27T23:37:12.547Z,1.80
2019-04-27T23:39:40.997Z,1.60
2019-04-27T23:42:09.433Z,1.30
2019-04-27T23:44:37.884Z,1.30
2019-04-27T23:47:06.364Z,1.72
2019-04-27T23:49:34.900Z,1.47
2019-04-27T23:52:05.104Z,1.25
2019-04-27T23:54:34.276Z,1.60
2019-04-27T23:57:02.722Z,1.25
2019-04-27T23:59:31.527Z,1.60
